Time;durP1;ratioP1;P1;durP2;ratioP2;P2;SDS_P1;SDS_P2;PMS_P1;PMS_P2;Temp;Humidity;BMP_temperature;BMP_pressure;BME280_temperature;BME280_humidity;BME280_pressure;Samples;Min_cycle;Max_cycle;Signal;HPM_P1;HPM_P2
2022/02/27 00:01:09;;;;;;;18.92;11.70;;;;;;;3.96;59.70;93826.69;5047895;28;20021;-41
2022/02/27 00:03:35;;;;;;;21.17;9.60;;;;;;;4.07;58.54;93834.88;5047740;28;20025;-42
2022/02/27 00:06:00;;;;;;;19.10;10.68;;;;;;;4.04;59.02;93839.34;5047769;28;20032;-41
2022/02/27 00:08:26;;;;;;;18.15;11.38;;;;;;;4.05;59.36;93838.09;5045461;28;20031;-42
2022/02/27 00:10:51;;;;;;;23.45;11.93;;;;;;;4.05;59.75;93829.91;5038277;28;20033;-43
2022/02/27 00:13:17;;;;;;;19.60;10.73;;;;;;;4.03;59.22;93834.38;5032987;28;20086;-42
2022/02/27 00:15:42;;;;;;;19.38;11.80;;;;;;;4.05;59.01;93835.34;5028009;28;20048;-43
2022/02/27 00:18:08;;;;;;;21.38;11.88;;;;;;;4.09;58.76;93830.41;5074533;27;20404;-43
2022/02/27 00:20:33;;;;;;;18.58;10.68;;;;;;;4.19;58.72;93828.16;5152667;27;20484;-43
2022/02/27 00:22:59;;;;;;;21.63;11.43;;;;;;;4.10;58.86;93820.97;5152649;27;20041;-42
2022/02/27 00:25:24;;;;;;;16.92;11.07;;;;;;;4.10;58.74;93820.97;5133813;27;20546;-41
2022/02/27 00:27:50;;;;;;;19.00;11.35;;;;;;;4.08;59.10;93828.16;5047496;28;20049;-42
2022/02/27 00:30:15;;;;;;;19.52;10.05;;;;;;;4.14;58.66;93829.66;5047508;28;20406;-42
2022/02/27 00:32:41;;;;;;;19.63;10.82;;;;;;;4.05;58.71;93827.16;5047845;28;20088;-42
2022/02/27 00:35:07;;;;;;;16.52;10.90;;;;;;;4.07;59.11;93821.94;5047700;28;20025;-42
2022/02/27 00:37:33;;;;;;;23.25;12.07;;;;;;;4.23;58.79;93823.94;5047632;28;20059;-43
2022/02/27 00:39:58;;;;;;;17.63;11.02;;;;;;;4.18;58.32;93826.69;5046944;28;20025;-42
2022/02/27 00:42:24;;;;;;;16.27;10.48;;;;;;;4.18;58.53;93826.69;5047677;28;20028;-42
2022/02/27 00:44:50;;;;;;;17.85;10.68;;;;;;;4.31;57.52;93813.25;5047764;28;20058;-42
2022/02/27 00:47:15;;;;;;;18.73;11.45;;;;;;;4.28;57.62;93815.00;5047449;28;20417;-42
2022/02/27 00:49:41;;;;;;;21.05;10.88;;;;;;;4.18;58.25;93810.28;5046036;28;20406;-42
2022/02/27 00:52:06;;;;;;;18.63;11.20;;;;;;;4.20;57.75;93808.53;5047385;28;20025;-43
2022/02/27 00:54:32;;;;;;;18.83;10.93;;;;;;;4.10;58.56;93801.84;5047246;28;20421;-42
2022/02/27 00:56:57;;;;;;;19.77;11.00;;;;;;;4.06;58.50;93804.06;5047406;28;20036;-43
2022/02/27 00:59:23;;;;;;;17.63;10.75;;;;;;;4.17;58.29;93800.59;5047026;28;20025;-42
2022/02/27 01:01:48;;;;;;;17.48;11.05;;;;;;;4.03;58.34;93761.34;5047053;28;20112;-43
2022/02/27 01:04:14;;;;;;;18.70;11.07;;;;;;;4.21;57.94;93776.47;5047244;28;20021;-43
2022/02/27 01:06:39;;;;;;;18.88;10.48;;;;;;;4.02;59.32;93767.31;5047378;28;20061;-42
2022/02/27 01:09:05;;;;;;;15.63;10.93;;;;;;;4.12;58.37;93763.06;5046907;28;20068;-42
2022/02/27 01:11:32;;;;;;;17.10;10.57;;;;;;;4.06;58.54;93760.38;5047066;28;20089;-43
2022/02/27 01:13:58;;;;;;;23.35;11.73;;;;;;;4.05;58.63;93758.13;5047200;28;20033;-42
2022/02/27 01:16:24;;;;;;;17.50;11.13;;;;;;;3.98;59.03;93762.13;5046441;28;20413;-42
2022/02/27 01:18:50;;;;;;;21.85;11.07;;;;;;;4.08;58.70;93757.88;5046518;28;20044;-42
2022/02/27 01:21:16;;;;;;;23.30;11.65;;;;;;;4.04;59.49;93743.72;5046874;28;20029;-42
2022/02/27 01:23:43;;;;;;;19.08;9.68;;;;;;;4.01;58.80;93750.19;5046819;28;20032;-43
2022/02/27 01:26:08;;;;;;;20.73;10.30;;;;;;;3.88;59.04;93752.69;5046867;28;20020;-42
2022/02/27 01:28:34;;;;;;;17.42;10.77;;;;;;;3.75;59.99;93755.16;5047088;28;20562;-42
2022/02/27 01:30:59;;;;;;;18.63;10.93;;;;;;;3.71;60.15;93769.06;5048884;28;20029;-42
2022/02/27 01:33:25;;;;;;;19.55;11.25;;;;;;;3.67;60.15;93773.28;5050363;28;20033;-42
2022/02/27 01:35:50;;;;;;;21.80;11.05;;;;;;;3.70;60.19;93777.78;5050221;28;20028;-42
2022/02/27 01:38:16;;;;;;;20.05;11.52;;;;;;;3.65;60.00;93778.50;5050298;28;20025;-42
2022/02/27 01:40:41;;;;;;;17.25;11.45;;;;;;;3.53;60.78;93777.75;5050120;27;20406;-41
2022/02/27 01:43:07;;;;;;;16.80;9.88;;;;;;;3.56;60.76;93770.56;5050395;28;20025;-42
2022/02/27 01:45:32;;;;;;;20.48;10.07;;;;;;;3.60;59.89;93773.78;5050277;28;20028;-41
2022/02/27 01:47:57;;;;;;;15.95;10.25;;;;;;;3.54;60.91;93781.22;5050055;28;20025;-41
2022/02/27 01:50:23;;;;;;;17.13;10.77;;;;;;;3.55;60.27;93769.81;5049880;28;20025;-42
2022/02/27 01:52:48;;;;;;;15.05;10.23;;;;;;;3.60;60.55;93771.81;5050254;28;20115;-41
2022/02/27 01:55:14;;;;;;;21.30;11.15;;;;;;;3.60;60.16;93773.78;5049889;28;20029;-42
2022/02/27 01:57:41;;;;;;;24.02;10.75;;;;;;;3.72;60.38;93769.81;5049904;28;20033;-42
2022/02/27 02:00:07;;;;;;;18.73;11.63;;;;;;;3.70;60.82;93764.13;5050077;28;20021;-42
2022/02/27 02:02:33;;;;;;;18.92;10.93;;;;;;;3.72;60.10;93759.66;5049743;28;20029;-42
2022/02/27 02:04:58;;;;;;;19.65;11.55;;;;;;;3.80;60.58;93759.88;5050109;28;20032;-42
2022/02/27 02:07:24;;;;;;;19.77;10.75;;;;;;;3.86;60.13;93746.97;5049934;28;20028;-42
2022/02/27 02:09:49;;;;;;;20.55;11.32;;;;;;;3.95;59.06;93759.63;5049782;28;20072;-42
2022/02/27 02:12:15;;;;;;;18.15;11.00;;;;;;;4.03;59.00;93750.41;5049607;28;20021;-42
2022/02/27 02:14:41;;;;;;;17.38;11.27;;;;;;;3.83;59.73;93737.06;5049604;28;20025;-42
2022/02/27 02:17:06;;;;;;;19.50;11.85;;;;;;;3.85;60.35;93750.97;5049602;28;20093;-42
2022/02/27 02:19:32;;;;;;;16.70;11.65;;;;;;;3.84;59.58;93755.66;5060370;27;20062;-41
2022/02/27 02:21:59;;;;;;;22.50;12.18;;;;;;;3.82;59.84;93757.41;5049841;28;20025;-42
2022/02/27 02:24:26;;;;;;;19.63;12.15;;;;;;;3.75;60.87;93766.09;5049519;28;20057;-42
2022/02/27 02:26:51;;;;;;;20.00;11.90;;;;;;;3.72;60.25;93759.66;5049176;28;20049;-42
2022/02/27 02:29:19;;;;;;;17.70;11.43;;;;;;;3.74;60.63;93770.81;5049630;28;20032;-42
2022/02/27 02:31:46;;;;;;;19.50;11.25;;;;;;;3.66;61.44;93778.00;5049485;28;20047;-42
2022/02/27 02:34:13;;;;;;;22.05;12.32;;;;;;;3.60;61.52;93771.03;5049360;28;20037;-42
2022/02/27 02:36:40;;;;;;;20.73;12.00;;;;;;;3.46;62.12;93758.41;5049687;28;20465;-42
2022/02/27 02:39:07;;;;;;;20.30;11.35;;;;;;;3.54;61.77;93748.47;5049457;28;20029;-42
2022/02/27 02:41:33;;;;;;;25.92;11.88;;;;;;;3.57;62.27;93734.56;5048103;27;20028;-42
2022/02/27 02:43:59;;;;;;;20.23;11.45;;;;;;;3.52;61.74;93729.88;5049129;28;20417;-43
2022/02/27 02:46:24;;;;;;;17.45;11.18;;;;;;;3.55;61.96;93715.22;5049078;28;20044;-42
2022/02/27 02:48:50;;;;;;;17.35;11.77;;;;;;;3.54;61.87;93713.72;5049180;28;20032;-42
2022/02/27 02:51:16;;;;;;;19.80;11.60;;;;;;;3.57;62.20;93715.44;5049163;28;20029;-42
2022/02/27 02:53:41;;;;;;;23.13;12.02;;;;;;;3.56;62.22;93737.78;5048959;28;20566;-42
2022/02/27 02:56:08;;;;;;;19.85;11.30;;;;;;;3.59;61.54;93769.56;5048927;28;20029;-42
2022/02/27 02:58:42;;;;;;;21.20;12.60;;;;;;;3.63;61.71;93772.78;5048613;28;20021;-43
2022/02/27 03:01:09;;;;;;;24.88;13.55;;;;;;;3.59;62.62;93762.13;5049217;28;20027;-42
2022/02/27 03:03:36;;;;;;;25.00;12.45;;;;;;;3.60;61.29;93758.16;5049028;28;20044;-42
2022/02/27 03:06:01;;;;;;;18.38;11.07;;;;;;;3.55;61.69;93771.81;5048865;28;20036;-42
2022/02/27 03:08:27;;;;;;;22.00;12.95;;;;;;;3.49;61.43;93757.38;5049014;28;20024;-42
2022/02/27 03:10:52;;;;;;;25.85;12.07;;;;;;;3.79;62.08;93780.22;5048680;28;20115;-42
2022/02/27 03:13:18;;;;;;;22.63;12.48;;;;;;;3.75;61.05;93775.03;5048663;28;20036;-42
2022/02/27 03:15:43;;;;;;;19.98;12.00;;;;;;;3.93;61.03;93776.53;5048562;28;20032;-42
2022/02/27 03:18:08;;;;;;;21.02;12.20;;;;;;;3.93;60.73;93771.06;5048881;28;20025;-42
2022/02/27 03:20:34;;;;;;;21.38;12.35;;;;;;;3.88;60.55;93762.88;5048803;28;20387;-42
2022/02/27 03:22:59;;;;;;;21.85;12.27;;;;;;;3.70;61.18;93777.78;5048606;28;20429;-42
2022/02/27 03:25:26;;;;;;;23.33;13.23;;;;;;;3.81;60.93;93794.88;5048667;28;20025;-43
2022/02/27 03:27:52;;;;;;;23.95;12.18;;;;;;;3.75;61.17;93799.59;5048239;28;20128;-41
2022/02/27 03:30:18;;;;;;;21.27;13.77;;;;;;;3.64;61.77;93807.03;5048685;28;20120;-42
2022/02/27 03:32:46;;;;;;;25.13;13.48;;;;;;;3.63;62.06;93817.22;5048361;28;20034;-42
2022/02/27 03:35:16;;;;;;;24.80;13.63;;;;;;;3.75;61.48;93817.97;5048262;28;20111;-42
2022/02/27 03:37:41;;;;;;;22.08;12.48;;;;;;;3.85;61.46;93814.50;5048640;28;20037;-42
2022/02/27 03:40:07;;;;;;;25.63;14.60;;;;;;;3.89;61.47;93814.25;5048185;28;20025;-42
2022/02/27 03:42:33;;;;;;;20.10;13.18;;;;;;;3.79;61.94;93813.00;5048595;28;20383;-43
2022/02/27 03:44:58;;;;;;;23.33;13.40;;;;;;;3.95;61.24;93804.06;5048201;28;20120;-42
2022/02/27 03:47:24;;;;;;;18.42;12.02;;;;;;;3.90;61.35;93802.09;5048460;28;20040;-42
2022/02/27 03:49:49;;;;;;;18.40;12.55;;;;;;;3.68;61.96;93802.81;5048490;28;20040;-42
2022/02/27 03:52:15;;;;;;;27.35;14.63;;;;;;;3.63;61.95;93798.13;5047990;28;20119;-42
2022/02/27 03:54:40;;;;;;;22.95;14.35;;;;;;;3.69;62.29;93801.59;5048135;28;20086;-42
2022/02/27 03:57:06;;;;;;;23.23;13.80;;;;;;;3.76;62.03;93803.09;5047943;28;20064;-42
2022/02/27 03:59:31;;;;;;;25.67;14.15;;;;;;;3.89;62.01;93792.41;5048198;28;20082;-42
2022/02/27 04:01:56;;;;;;;22.05;13.75;;;;;;;3.89;61.92;93786.19;5047952;28;20032;-42
2022/02/27 04:04:22;;;;;;;25.23;14.90;;;;;;;3.96;61.51;93785.72;5047988;28;20032;-41
2022/02/27 04:06:47;;;;;;;24.27;14.02;;;;;;;4.03;61.30;93777.03;5048303;28;20029;-42
2022/02/27 04:09:13;;;;;;;22.75;15.18;;;;;;;4.06;61.95;93765.81;5048075;28;20478;-42
2022/02/27 04:11:38;;;;;;;26.42;15.50;;;;;;;4.19;61.64;93768.78;5047697;28;20395;-42
2022/02/27 04:14:04;;;;;;;26.27;15.90;;;;;;;4.18;61.00;93777.50;5048097;28;20539;-42
2022/02/27 04:16:29;;;;;;;26.48;16.08;;;;;;;4.23;61.35;93780.19;5047731;28;20040;-42
2022/02/27 04:18:54;;;;;;;38.78;23.20;;;;;;;4.16;61.45;93777.25;5120385;27;20107;-41
2022/02/27 04:21:20;;;;;;;46.53;24.50;;;;;;;4.33;60.64;93777.97;5152332;27;20069;-42
2022/02/27 04:23:46;;;;;;;37.80;23.08;;;;;;;4.24;62.19;93772.75;5152413;27;20030;-41
2022/02/27 04:26:11;;;;;;;41.15;23.20;;;;;;;4.29;60.41;93767.25;5152354;27;20480;-42
2022/02/27 04:28:37;;;;;;;61.75;33.20;;;;;;;4.24;60.70;93768.03;5152223;27;20026;-43
2022/02/27 04:31:02;;;;;;;70.00;37.42;;;;;;;4.06;60.60;93779.50;5152140;27;20030;-41
2022/02/27 04:33:28;;;;;;;50.17;28.67;;;;;;;3.96;60.73;93774.78;5152312;27;20023;-42
2022/02/27 04:35:53;;;;;;;49.42;24.73;;;;;;;3.91;61.66;93784.47;5152411;27;20034;-42
2022/02/27 04:38:18;;;;;;;35.58;18.20;;;;;;;3.98;60.66;93791.41;5152381;27;20018;-42
2022/02/27 04:40:44;;;;;;;29.38;18.63;;;;;;;3.76;61.29;93790.19;5107572;27;20107;-42
2022/02/27 04:43:09;;;;;;;37.83;20.50;;;;;;;3.57;61.40;93791.16;5047345;28;20041;-42
2022/02/27 04:45:35;;;;;;;34.20;20.45;;;;;;;3.72;61.87;93792.44;5047477;28;20040;-41
2022/02/27 04:48:00;;;;;;;36.08;21.90;;;;;;;3.79;61.02;93796.63;5046496;28;20037;-41
2022/02/27 04:50:26;;;;;;;36.67;21.30;;;;;;;3.68;60.96;93797.38;5046573;28;20029;-42
2022/02/27 04:52:51;;;;;;;30.10;17.75;;;;;;;3.81;60.67;93797.63;5047495;28;20025;-42
2022/02/27 04:55:17;;;;;;;28.40;16.55;;;;;;;3.49;61.59;93801.81;5047333;28;20017;-42
2022/02/27 04:57:42;;;;;;;31.10;18.00;;;;;;;3.49;61.67;93799.09;5047475;28;20036;-42
2022/02/27 05:00:09;;;;;;;28.88;15.73;;;;;;;3.48;61.74;93789.41;5047398;28;20032;-43
2022/02/27 05:02:35;;;;;;;26.40;14.05;;;;;;;3.54;60.68;93798.34;5047032;28;20025;-42
2022/02/27 05:05:01;;;;;;;27.90;16.20;;;;;;;3.52;61.04;93802.81;5046236;28;20033;-42
2022/02/27 05:07:27;;;;;;;29.48;17.63;;;;;;;3.58;61.52;93809.78;5047023;28;20033;-42
2022/02/27 05:09:52;;;;;;;29.48;18.38;;;;;;;3.59;61.80;93810.53;5046936;28;20509;-42
2022/02/27 05:12:18;;;;;;;30.83;18.40;;;;;;;3.71;61.32;93820.22;5046894;28;20088;-42
2022/02/27 05:14:43;;;;;;;25.75;13.85;;;;;;;3.71;61.04;93822.94;5047224;28;20081;-43
2022/02/27 05:17:09;;;;;;;34.35;19.58;;;;;;;3.60;61.34;93818.22;5047130;28;20033;-43
2022/02/27 05:19:34;;;;;;;24.63;16.30;;;;;;;3.56;61.76;93819.69;5148571;27;20026;-41
2022/02/27 05:22:00;;;;;;;33.33;20.33;;;;;;;3.72;61.85;93818.97;5151517;27;20022;-42
2022/02/27 05:24:25;;;;;;;26.85;14.73;;;;;;;3.57;61.78;93794.63;5151421;27;20031;-41
2022/02/27 05:26:50;;;;;;;31.85;18.55;;;;;;;3.45;63.60;93806.03;5151463;27;20050;-43
2022/02/27 05:29:16;;;;;;;24.35;15.02;;;;;;;3.23;64.98;93798.53;5151607;27;20411;-41
2022/02/27 05:31:41;;;;;;;31.85;17.83;;;;;;;3.33;64.96;93804.53;5151350;27;20515;-42
2022/02/27 05:34:08;;;;;;;28.50;18.08;;;;;;;3.36;65.31;93809.72;5151549;27;20022;-42
2022/02/27 05:36:34;;;;;;;34.28;18.55;;;;;;;3.42;65.97;93815.22;5151704;27;20023;-42
2022/02/27 05:39:00;;;;;;;29.90;17.90;;;;;;;3.57;66.42;93823.94;5151612;27;20126;-42
2022/02/27 05:41:26;;;;;;;26.08;16.70;;;;;;;3.62;66.97;93831.34;5076360;27;20085;-42
2022/02/27 05:43:52;;;;;;;25.88;17.67;;;;;;;3.47;67.63;93823.41;5046548;28;20037;-42
2022/02/27 05:46:18;;;;;;;28.30;17.92;;;;;;;3.46;68.43;93807.53;5046467;28;20029;-42
2022/02/27 05:48:43;;;;;;;29.33;18.08;;;;;;;3.57;68.50;93821.19;5046801;28;20025;-42
2022/02/27 05:51:09;;;;;;;28.95;16.55;;;;;;;3.47;68.44;93814.47;5046634;28;20029;-42
2022/02/27 05:53:34;;;;;;;27.38;18.90;;;;;;;3.34;69.48;93811.47;5046349;28;20072;-42
2022/02/27 05:56:00;;;;;;;40.28;22.98;;;;;;;3.15;71.59;93794.06;5046697;28;20025;-42
2022/02/27 05:58:26;;;;;;;30.10;17.30;;;;;;;3.07;71.97;93802.72;5046673;28;20020;-42
2022/02/27 06:00:51;;;;;;;28.10;17.48;;;;;;;3.08;72.28;93798.75;5046359;28;20497;-42
2022/02/27 06:03:18;;;;;;;30.25;17.20;;;;;;;3.19;72.58;93795.31;5046208;28;20025;-42
2022/02/27 06:05:44;;;;;;;26.67;16.77;;;;;;;2.98;72.91;93810.38;5046693;28;20021;-43
2022/02/27 06:08:10;;;;;;;23.45;13.95;;;;;;;3.05;73.22;93812.66;5046597;28;20112;-43
2022/02/27 06:10:36;;;;;;;27.60;16.17;;;;;;;3.10;73.08;93803.72;5046208;28;20528;-43
2022/02/27 06:13:01;;;;;;;24.90;16.33;;;;;;;2.91;73.36;93791.75;5046551;28;20021;-42
2022/02/27 06:15:26;;;;;;;31.63;19.20;;;;;;;3.04;74.45;93795.53;5046098;28;20025;-43
2022/02/27 06:17:53;;;;;;;32.05;18.83;;;;;;;2.80;75.35;93800.66;5077179;27;20030;-43
2022/02/27 06:20:18;;;;;;;28.67;16.92;;;;;;;2.92;75.20;93809.63;5154792;27;20086;-43
2022/02/27 06:22:46;;;;;;;31.25;18.33;;;;;;;3.16;74.11;93811.94;5154729;27;20030;-43
2022/02/27 06:25:13;;;;;;;30.85;18.50;;;;;;;3.07;74.96;93823.81;5155013;27;20033;-42
2022/02/27 06:27:42;;;;;;;26.83;16.42;;;;;;;3.14;75.27;93831.50;5154414;27;20046;-42
2022/02/27 06:30:11;;;;;;;;;;;;;;;3.15;74.75;93834.97;5155373;27;20023;-43
2022/02/27 06:32:37;;;;;;;48.78;27.45;;;;;;;3.26;74.17;93829.56;5154550;27;19956;-42
2022/02/27 06:35:03;;;;;;;52.15;26.75;;;;;;;3.03;74.64;93842.41;5154821;27;20035;-42
2022/02/27 06:37:29;;;;;;;43.03;24.67;;;;;;;3.02;75.40;93827.25;5153125;27;20037;-42
2022/02/27 06:39:54;;;;;;;32.72;19.38;;;;;;;3.17;75.24;93832.50;5146237;27;20027;-42
2022/02/27 06:42:20;;;;;;;35.30;20.48;;;;;;;3.08;75.58;93839.69;5049266;28;20021;-42
2022/02/27 06:44:45;;;;;;;33.80;20.55;;;;;;;3.07;75.84;93830.00;5049126;28;20017;-42
2022/02/27 06:47:10;;;;;;;26.88;15.98;;;;;;;3.16;74.92;93829.06;5049411;28;20033;-43
2022/02/27 06:49:36;;;;;;;31.55;19.45;;;;;;;3.14;74.35;93836.94;5049015;28;20029;-43
2022/02/27 06:52:02;;;;;;;26.38;15.40;;;;;;;3.11;74.21;93837.94;5037563;28;20030;-42
2022/02/27 06:54:27;;;;;;;21.40;14.18;;;;;;;3.08;73.88;93831.50;5029406;28;20120;-42
2022/02/27 06:56:53;;;;;;;25.23;15.10;;;;;;;3.05;74.73;93835.19;5028175;28;20026;-42
2022/02/27 06:59:18;;;;;;;24.50;15.18;;;;;;;3.00;75.21;93833.22;5033449;28;20557;-42
2022/02/27 07:01:44;;;;;;;29.77;16.17;;;;;;;3.01;75.16;93834.69;5039502;28;20325;-42
2022/02/27 07:04:09;;;;;;;27.50;17.60;;;;;;;3.17;75.24;93844.16;5028929;28;20086;-42
2022/02/27 07:06:35;;;;;;;28.08;17.40;;;;;;;3.16;75.15;93850.13;5029302;28;20026;-42
2022/02/27 07:09:00;;;;;;;23.50;16.92;;;;;;;2.99;74.95;93814.59;5038802;28;20089;-42
2022/02/27 07:11:26;;;;;;;20.77;12.07;;;;;;;3.19;74.51;93841.69;5046484;28;20056;-43
2022/02/27 07:13:51;;;;;;;24.95;16.52;;;;;;;3.16;74.85;93842.69;5046320;28;20041;-42
2022/02/27 07:16:22;;;;;;;28.73;17.17;;;;;;;3.12;76.04;93839.44;5046223;28;20108;-42
2022/02/27 07:18:48;;;;;;;25.08;16.05;;;;;;;3.13;76.17;93837.44;5114068;27;20682;-43
2022/02/27 07:21:13;;;;;;;29.48;17.90;;;;;;;2.98;76.10;93827.50;5151109;27;20033;-43
2022/02/27 07:23:39;;;;;;;18.30;13.05;;;;;;;3.07;75.93;93827.25;5151275;27;20103;-43
2022/02/27 07:26:04;;;;;;;20.33;13.68;;;;;;;3.19;76.37;93832.75;5151164;27;20033;-43
2022/02/27 07:28:30;;;;;;;34.65;21.73;;;;;;;3.24;75.67;93837.50;5149913;27;20040;-42
2022/02/27 07:30:55;;;;;;;22.13;15.25;;;;;;;3.31;76.04;93837.03;5068221;27;20025;-43
2022/02/27 07:33:20;;;;;;;20.13;15.27;;;;;;;3.32;75.30;93830.31;5045768;28;20025;-42
2022/02/27 07:35:46;;;;;;;15.38;11.60;;;;;;;3.35;74.91;93834.78;5045889;28;20025;-43
2022/02/27 07:38:11;;;;;;;15.73;11.70;;;;;;;3.38;74.35;93829.09;5045876;28;20032;-43
2022/02/27 07:40:37;;;;;;;20.15;13.32;;;;;;;3.26;74.97;93815.91;5045804;28;20029;-43
2022/02/27 07:43:02;;;;;;;27.10;16.58;;;;;;;3.38;75.36;93833.81;5043218;28;20399;-43
2022/02/27 07:45:28;;;;;;;20.13;13.15;;;;;;;3.50;74.14;93824.41;5045788;28;20029;-42
2022/02/27 07:47:53;;;;;;;38.38;23.75;;;;;;;3.41;75.10;93819.94;5046162;28;20521;-42
2022/02/27 07:50:19;;;;;;;45.22;27.83;;;;;;;3.45;74.48;93823.16;5044917;28;20021;-42
2022/02/27 07:52:44;;;;;;;42.72;27.85;;;;;;;3.28;74.88;93822.38;5044482;28;20494;-42
2022/02/27 07:55:09;;;;;;;30.73;21.08;;;;;;;3.43;75.08;93820.19;5044706;28;20036;-43
2022/02/27 07:57:37;;;;;;;33.22;20.80;;;;;;;3.38;74.75;93817.44;5044131;28;20060;-42
2022/02/27 08:00:04;;;;;;;35.10;20.85;;;;;;;3.50;75.00;93811.50;5044292;28;20020;-43
2022/02/27 08:02:30;;;;;;;55.45;30.20;;;;;;;3.53;74.21;93812.50;5044635;27;20051;-42
2022/02/27 08:04:55;;;;;;;51.83;28.05;;;;;;;3.58;74.66;93809.03;5045239;28;20747;-43
2022/02/27 08:07:21;;;;;;;75.30;32.97;;;;;;;3.61;74.66;93800.59;5045031;28;20040;-42
2022/02/27 08:09:46;;;;;;;45.00;22.67;;;;;;;3.60;74.52;93801.84;5045365;28;20093;-42
2022/02/27 08:12:12;;;;;;;32.13;19.73;;;;;;;3.59;74.95;93802.34;5038977;28;20121;-42
2022/02/27 08:14:37;;;;;;;50.95;30.70;;;;;;;3.68;74.48;93791.19;5033870;28;20025;-42
2022/02/27 08:17:03;;;;;;;49.38;28.27;;;;;;;3.70;74.33;93791.44;5036364;28;20033;-43
2022/02/27 08:19:28;;;;;;;40.60;26.17;;;;;;;3.78;73.92;93798.63;5050090;27;20024;-42
2022/02/27 08:21:54;;;;;;;39.75;25.58;;;;;;;3.90;74.09;93804.81;5035245;28;20398;-42
2022/02/27 08:24:19;;;;;;;36.60;24.50;;;;;;;3.95;73.31;93814.25;5033586;28;20059;-42
2022/02/27 08:26:45;;;;;;;27.10;17.42;;;;;;;4.07;73.65;93810.28;5033139;28;20056;-42
2022/02/27 08:29:11;;;;;;;32.88;20.20;;;;;;;4.12;73.17;93818.47;5035065;28;20033;-42
2022/02/27 08:31:42;;;;;;;36.88;23.00;;;;;;;4.07;73.03;93818.50;5034933;28;20079;-42
2022/02/27 08:34:07;;;;;;;49.33;26.95;;;;;;;4.11;72.28;93827.19;5036955;28;20498;-43
2022/02/27 08:36:33;;;;;;;60.55;33.45;;;;;;;4.12;72.55;93834.88;5033267;28;20043;-42
2022/02/27 08:38:59;;;;;;;30.88;20.17;;;;;;;4.18;72.08;93843.81;5034215;28;20078;-42
2022/02/27 08:41:26;;;;;;;27.00;19.52;;;;;;;4.23;72.10;93834.88;5034297;28;20600;-42
2022/02/27 08:43:52;;;;;;;28.05;17.42;;;;;;;4.17;72.22;93830.66;5034728;28;20108;-42
2022/02/27 08:46:18;;;;;;;33.22;20.70;;;;;;;4.14;72.66;93828.91;5031576;28;20522;-43
2022/02/27 08:48:44;;;;;;;20.27;13.93;;;;;;;3.98;71.54;93814.03;5030746;28;20021;-42
2022/02/27 08:51:09;;;;;;;22.95;14.75;;;;;;;3.96;72.28;93823.94;5030351;28;20036;-42
2022/02/27 08:53:35;;;;;;;19.00;14.50;;;;;;;3.96;72.76;93821.22;5035459;28;20079;-42
2022/02/27 08:56:00;;;;;;;23.33;13.57;;;;;;;3.99;73.05;93801.84;5035600;28;20040;-42
2022/02/27 08:58:27;;;;;;;25.08;15.70;;;;;;;3.73;72.79;93799.34;5032577;28;20024;-42
2022/02/27 09:00:54;;;;;;;25.27;15.65;;;;;;;3.65;74.01;93792.16;5034838;28;20078;-42
2022/02/27 09:03:27;;;;;;;25.48;17.48;;;;;;;3.56;74.20;93792.41;5033915;28;20029;-42
2022/02/27 09:05:53;;;;;;;25.15;16.38;;;;;;;3.66;73.96;93794.38;5033324;28;20493;-42
2022/02/27 09:08:19;;;;;;;20.98;16.30;;;;;;;3.65;74.05;93792.16;5033740;28;20017;-43
2022/02/27 09:10:45;;;;;;;20.98;14.80;;;;;;;3.67;74.23;93795.13;5033128;28;20022;-42
2022/02/27 09:13:11;;;;;;;29.25;19.95;;;;;;;3.77;73.89;93788.94;5026788;28;20025;-45
2022/02/27 09:15:36;;;;;;;24.73;17.05;;;;;;;3.97;74.23;93790.66;5026135;28;20387;-42
2022/02/27 09:18:02;;;;;;;26.35;16.77;;;;;;;4.13;73.02;93792.66;5068357;27;20067;-42
2022/02/27 09:20:28;;;;;;;28.17;16.15;;;;;;;4.25;72.43;93790.63;5150695;27;20015;-42
2022/02/27 09:22:53;;;;;;;25.45;17.75;;;;;;;4.15;73.16;93786.69;5151900;27;20124;-43
2022/02/27 09:25:19;;;;;;;27.75;19.17;;;;;;;4.42;72.81;93781.16;5151799;27;20103;-43
2022/02/27 09:27:45;;;;;;;24.77;16.70;;;;;;;4.38;72.10;93777.19;5151443;27;20062;-43
2022/02/27 09:30:12;;;;;;;29.23;21.65;;;;;;;4.38;72.30;93769.75;5118557;27;20057;-42
2022/02/27 09:32:41;;;;;;;30.67;21.90;;;;;;;4.56;72.32;93774.66;5024798;28;20048;-42
2022/02/27 09:35:07;;;;;;;30.83;21.50;;;;;;;4.24;71.86;93775.50;5025508;28;20037;-42
2022/02/27 09:37:33;;;;;;;34.13;22.45;;;;;;;3.83;72.65;93743.25;5026324;28;20502;-42
2022/02/27 09:39:59;;;;;;;29.15;18.80;;;;;;;3.97;73.16;93773.53;5028187;28;20096;-42
2022/02/27 09:42:29;;;;;;;25.02;16.60;;;;;;;3.79;73.42;93758.38;5046636;28;20108;-42
2022/02/27 09:44:55;;;;;;;23.48;15.65;;;;;;;4.00;73.23;93759.63;5046838;28;20036;-43
2022/02/27 09:47:21;;;;;;;19.05;11.88;;;;;;;3.88;72.63;93754.69;5046489;28;20078;-42
2022/02/27 09:49:47;;;;;;;25.77;16.50;;;;;;;3.73;74.09;93750.22;5046483;28;20041;-42
2022/02/27 09:52:17;;;;;;;21.65;11.65;;;;;;;4.02;73.11;93753.66;5049171;28;20037;-42
2022/02/27 09:54:43;;;;;;;17.25;12.00;;;;;;;4.20;72.65;93748.41;5050261;28;20029;-43
2022/02/27 09:57:19;;;;;;;10.77;7.68;;;;;;;4.27;71.53;93758.06;5050132;28;20021;-42
2022/02/27 09:59:45;;;;;;;12.60;8.88;;;;;;;4.33;70.34;93754.09;5050146;28;20455;-42
2022/02/27 10:02:12;;;;;;;14.43;10.02;;;;;;;3.95;70.42;93746.72;5049740;28;20033;-42
2022/02/27 10:04:39;;;;;;;12.60;7.57;;;;;;;3.84;69.86;93749.44;5050068;28;20070;-42
2022/02/27 10:07:12;;;;;;;11.13;8.68;;;;;;;3.77;71.27;93750.69;5049801;28;20077;-43
2022/02/27 10:09:38;;;;;;;12.48;7.47;;;;;;;3.78;71.05;93746.00;5049714;28;20063;-43
2022/02/27 10:12:14;;;;;;;25.30;9.55;;;;;;;3.40;72.48;93741.28;5049634;28;20077;-42
2022/02/27 10:14:40;;;;;;;16.00;9.57;;;;;;;3.47;72.81;93748.94;5049980;28;20463;-42
2022/02/27 10:17:06;;;;;;;13.82;9.20;;;;;;;3.61;73.18;93748.72;5049821;28;20025;-42
2022/02/27 10:19:38;;;;;;;10.98;8.15;;;;;;;3.77;71.60;93761.63;5049788;28;20117;-43
2022/02/27 10:22:04;;;;;;;18.17;11.77;;;;;;;3.99;72.85;93749.94;5049565;28;20104;-42
2022/02/27 10:24:29;;;;;;;15.27;9.82;;;;;;;4.15;72.67;93740.97;5048546;28;20029;-42
2022/02/27 10:26:55;;;;;;;14.00;8.85;;;;;;;4.14;72.01;93755.13;5049506;28;20537;-42
2022/02/27 10:29:22;;;;;;;12.75;8.65;;;;;;;4.35;72.48;93748.84;5049638;28;20413;-42
2022/02/27 10:31:51;;;;;;;8.68;6.63;;;;;;;4.43;71.06;93749.09;5049586;28;20024;-42
2022/02/27 10:34:20;;;;;;;8.52;6.07;;;;;;;4.40;71.17;93744.63;5049633;28;20028;-43
2022/02/27 10:37:15;;;;;;;9.90;6.45;;;;;;;4.53;70.72;93747.56;5049623;28;20033;-43
2022/02/27 10:39:50;;;;;;;15.98;10.30;;;;;;;4.31;72.08;93734.00;5043583;28;20068;-42
2022/02/27 10:42:26;;;;;;;8.27;6.03;;;;;;;4.46;71.28;93737.16;5038069;28;20013;-43
2022/02/27 10:44:56;;;;;;;7.55;6.20;;;;;;;4.37;71.69;93734.72;5039194;28;20029;-43
2022/02/27 10:47:23;;;;;;;25.10;18.73;;;;;;;4.35;71.10;93727.00;5038185;28;20018;-43
2022/02/27 10:49:51;;;;;;;15.55;10.52;;;;;;;4.11;72.36;93724.09;5037164;28;20426;-42
2022/02/27 10:52:17;;;;;;;13.07;8.60;;;;;;;4.24;71.06;93726.31;5038734;28;20017;-42
2022/02/27 10:54:45;;;;;;;15.20;11.10;;;;;;;4.02;71.32;93726.34;5037186;28;20082;-43
2022/02/27 10:57:34;;;;;;;16.97;11.03;;;;;;;4.11;72.39;93724.09;5037892;28;20635;-43
2022/02/27 11:00:02;;;;;;;;;;;;;;;4.03;72.38;93712.16;5029471;28;20461;-42
2022/02/27 11:02:29;;;;;;;33.73;17.43;;;;;;;3.91;73.81;93705.25;5036443;28;19913;-42
2022/02/27 11:04:56;;;;;;;48.58;24.98;;;;;;;4.11;73.42;93718.63;5036343;28;20024;-43
2022/02/27 11:07:22;;;;;;;32.63;17.05;;;;;;;4.24;71.98;93716.13;5037165;28;20486;-43
2022/02/27 11:09:49;;;;;;;27.50;17.70;;;;;;;4.31;72.11;93714.84;5037228;28;20026;-43
2022/02/27 11:12:14;;;;;;;14.40;10.32;;;;;;;4.29;71.45;93711.84;5037046;28;20017;-43
2022/02/27 11:14:42;;;;;;;20.92;13.45;;;;;;;4.31;71.72;93721.03;5037162;28;20108;-43
2022/02/27 11:17:10;;;;;;;11.07;7.00;;;;;;;4.19;71.79;93713.38;5036873;28;20392;-43
2022/02/27 11:19:37;;;;;;;7.18;5.95;;;;;;;3.98;72.85;93720.41;5040821;27;20070;-42
2022/02/27 11:22:04;;;;;;;14.70;7.97;;;;;;;3.97;73.48;93716.91;5038517;28;20021;-42